createdAt,value
2023-08-13T00:01:01.238Z,0
2023-08-13T00:02:15.532Z,0
2023-08-13T00:03:29.825Z,0
2023-08-13T00:04:44.118Z,0
2023-08-13T00:05:58.412Z,0
2023-08-13T00:07:12.705Z,0
2023-08-13T00:08:26.998Z,0
2023-08-13T00:09:41.291Z,0
2023-08-13T00:10:55.585Z,0
2023-08-13T00:12:09.878Z,0
2023-08-13T00:13:23.187Z,0
2023-08-13T00:14:37.480Z,0
2023-08-13T00:15:51.774Z,0
2023-08-13T00:17:06.067Z,0
2023-08-13T00:18:20.360Z,0
2023-08-13T00:19:34.654Z,0
2023-08-13T00:20:48.947Z,0
2023-08-13T00:22:03.240Z,0
2023-08-13T00:23:17.533Z,0
2023-08-13T00:24:31.826Z,0
2023-08-13T00:25:46.120Z,0
2023-08-13T00:27:00.413Z,0
2023-08-13T00:28:14.706Z,0
2023-08-13T00:29:28.016Z,0
2023-08-13T00:30:42.309Z,0
2023-08-13T00:31:56.602Z,0
2023-08-13T00:33:10.896Z,0
2023-08-13T00:34:25.189Z,0
2023-08-13T00:35:39.482Z,0
2023-08-13T00:36:53.775Z,0
2023-08-13T00:38:08.069Z,0
2023-08-13T00:39:22.362Z,0
2023-08-13T00:40:36.656Z,0
2023-08-13T00:41:50.949Z,0
2023-08-13T00:43:05.243Z,0
2023-08-13T00:44:19.537Z,0
2023-08-13T00:45:32.846Z,0
2023-08-13T00:46:47.140Z,0
2023-08-13T00:48:01.434Z,0
2023-08-13T00:49:15.727Z,0
2023-08-13T00:50:30.021Z,0
2023-08-13T00:51:44.314Z,0
2023-08-13T00:52:58.607Z,0
2023-08-13T00:54:12.900Z,0
2023-08-13T00:55:27.193Z,0
2023-08-13T00:56:41.487Z,0
2023-08-13T00:57:55.780Z,0
2023-08-13T00:59:10.073Z,0
2023-08-13T01:00:24.367Z,0
2023-08-13T01:01:37.676Z,0
2023-08-13T01:02:51.969Z,0
2023-08-13T01:04:06.263Z,0
2023-08-13T01:05:20.556Z,0
2023-08-13T01:06:34.849Z,0
2023-08-13T01:07:49.142Z,0
2023-08-13T01:09:03.436Z,0
2023-08-13T01:10:17.729Z,0
2023-08-13T01:11:32.022Z,0
2023-08-13T01:12:46.316Z,0
2023-08-13T01:14:00.609Z,0
2023-08-13T01:15:14.902Z,0
2023-08-13T01:16:29.195Z,0
2023-08-13T01:17:42.505Z,0
2023-08-13T01:18:56.798Z,0
2023-08-13T01:20:11.091Z,0
2023-08-13T01:21:25.385Z,0
2023-08-13T01:22:39.678Z,0
2023-08-13T01:23:53.971Z,0
2023-08-13T01:25:08.265Z,0
2023-08-13T01:26:22.558Z,0
2023-08-13T01:27:36.851Z,0
2023-08-13T01:28:51.144Z,0
2023-08-13T01:30:05.438Z,0
2023-08-13T01:31:19.731Z,0
2023-08-13T01:32:34.024Z,0
2023-08-13T01:33:47.334Z,0
2023-08-13T01:35:01.627Z,0
2023-08-13T01:36:15.920Z,0
2023-08-13T01:37:30.214Z,0
2023-08-13T01:38:44.507Z,0
2023-08-13T01:39:58.800Z,0
2023-08-13T01:41:13.093Z,0
2023-08-13T01:42:27.388Z,0
2023-08-13T01:43:41.681Z,0
2023-08-13T01:44:55.974Z,0
2023-08-13T01:46:10.267Z,0
2023-08-13T01:47:24.560Z,0
2023-08-13T01:48:38.854Z,0
2023-08-13T01:49:52.163Z,0
2023-08-13T01:51:06.456Z,0
2023-08-13T01:52:20.750Z,0
2023-08-13T01:53:35.043Z,0
2023-08-13T01:54:49.337Z,0
2023-08-13T01:56:03.630Z,0
2023-08-13T01:57:17.923Z,0
2023-08-13T01:58:32.216Z,0
2023-08-13T01:59:46.509Z,0
2023-08-13T02:01:00.803Z,0
2023-08-13T02:02:15.096Z,0
2023-08-13T02:03:29.390Z,0
2023-08-13T02:04:43.683Z,0
2023-08-13T02:05:56.992Z,0
2023-08-13T02:07:11.285Z,0
2023-08-13T02:08:25.579Z,0
2023-08-13T02:09:39.872Z,0
2023-08-13T02:10:54.165Z,0
2023-08-13T02:12:08.459Z,0
2023-08-13T02:13:22.752Z,0
2023-08-13T02:14:37.045Z,0
2023-08-13T02:15:51.339Z,0
2023-08-13T02:17:05.632Z,0
2023-08-13T02:18:19.925Z,0
2023-08-13T02:19:34.219Z,0
2023-08-13T02:20:48.512Z,0
2023-08-13T02:22:01.821Z,0
2023-08-13T02:23:16.115Z,0
2023-08-13T02:24:30.408Z,0
2023-08-13T02:25:44.702Z,0
2023-08-13T02:26:58.995Z,0
2023-08-13T02:28:13.288Z,0
2023-08-13T02:29:27.582Z,0
2023-08-13T02:30:41.875Z,0
2023-08-13T02:31:56.168Z,0
2023-08-13T02:33:10.461Z,0
2023-08-13T02:34:24.755Z,0
2023-08-13T02:35:39.048Z,0
2023-08-13T02:36:53.342Z,0
2023-08-13T02:38:06.651Z,0
2023-08-13T02:39:20.944Z,0
2023-08-13T02:40:35.238Z,0
2023-08-13T02:41:49.531Z,0
2023-08-13T02:43:03.824Z,0
2023-08-13T02:44:18.117Z,0
2023-08-13T02:45:32.411Z,0
2023-08-13T02:46:46.704Z,0
2023-08-13T02:48:00.998Z,0
2023-08-13T02:49:15.291Z,0
2023-08-13T02:50:29.584Z,0
2023-08-13T02:51:43.878Z,0
2023-08-13T02:52:58.171Z,0
2023-08-13T02:54:11.480Z,0
2023-08-13T02:55:25.774Z,0
2023-08-13T02:56:40.067Z,0
2023-08-13T02:57:54.361Z,0
2023-08-13T02:59:08.654Z,0
2023-08-13T03:00:22.947Z,0
2023-08-13T03:01:37.240Z,0
2023-08-13T03:02:51.534Z,0
2023-08-13T03:04:05.827Z,0
2023-08-13T03:05:20.120Z,0
2023-08-13T03:06:34.413Z,0
2023-08-13T03:07:48.707Z,0
2023-08-13T03:09:03.000Z,0
2023-08-13T03:10:16.310Z,0
2023-08-13T03:11:30.604Z,0
2023-08-13T03:12:44.897Z,0
2023-08-13T03:13:59.191Z,0
2023-08-13T03:15:13.484Z,0
2023-08-13T03:16:26.798Z,0
2023-08-13T03:17:41.092Z,0
2023-08-13T03:18:55.385Z,0
2023-08-13T03:20:09.636Z,1
2023-08-13T03:21:23.929Z,0
2023-08-13T03:22:38.223Z,0
2023-08-13T03:23:52.516Z,0
2023-08-13T03:25:06.810Z,0
2023-08-13T03:26:21.104Z,0
2023-08-13T03:27:35.397Z,0
2023-08-13T03:28:49.691Z,0
2023-08-13T03:30:03.985Z,0
2023-08-13T03:31:18.279Z,0
2023-08-13T03:32:31.545Z,1
2023-08-13T03:33:45.784Z,1
2023-08-13T03:35:00.024Z,1
2023-08-13T03:36:14.263Z,2
2023-08-13T03:37:28.502Z,1
2023-08-13T03:38:42.742Z,2
2023-08-13T03:39:56.981Z,3
2023-08-13T03:41:11.221Z,4
2023-08-13T03:42:25.460Z,5
2023-08-13T03:43:39.699Z,6
2023-08-13T03:44:53.939Z,7
2023-08-13T03:46:08.179Z,8
2023-08-13T03:47:22.418Z,9
2023-08-13T03:48:35.674Z,12
2023-08-13T03:49:49.913Z,14
2023-08-13T03:51:04.152Z,18
2023-08-13T03:52:18.392Z,22
2023-08-13T03:53:32.631Z,31
2023-08-13T03:54:46.871Z,41
2023-08-13T03:56:01.110Z,44
2023-08-13T03:57:15.349Z,53
2023-08-13T03:58:29.589Z,60
2023-08-13T03:59:43.828Z,65
2023-08-13T04:00:58.067Z,72
2023-08-13T04:02:12.307Z,85
2023-08-13T04:03:26.546Z,98
2023-08-13T04:04:39.801Z,109
2023-08-13T04:05:54.041Z,114
2023-08-13T04:07:08.280Z,120
2023-08-13T04:08:22.519Z,131
2023-08-13T04:09:36.760Z,138
2023-08-13T04:10:50.999Z,142
2023-08-13T04:12:05.238Z,152
2023-08-13T04:13:19.478Z,167
2023-08-13T04:14:33.717Z,175
2023-08-13T04:15:47.956Z,189
2023-08-13T04:17:02.196Z,213
2023-08-13T04:18:16.435Z,223
2023-08-13T04:19:30.674Z,232
2023-08-13T04:20:43.929Z,242
2023-08-13T04:21:58.169Z,252
2023-08-13T04:23:12.408Z,254
2023-08-13T04:24:26.648Z,266
2023-08-13T04:25:40.887Z,313
2023-08-13T04:26:55.126Z,394
2023-08-13T04:28:09.365Z,451
2023-08-13T04:29:23.605Z,526
2023-08-13T04:30:37.844Z,523
2023-08-13T04:31:52.083Z,289
2023-08-13T04:33:06.322Z,710
2023-08-13T04:34:20.562Z,469
2023-08-13T04:35:34.801Z,441
2023-08-13T04:36:48.057Z,273
2023-08-13T04:38:02.296Z,334
2023-08-13T04:39:16.535Z,631
2023-08-13T04:40:30.775Z,402
2023-08-13T04:41:45.014Z,1365
2023-08-13T04:42:59.253Z,459
2023-08-13T04:44:13.492Z,426
2023-08-13T04:45:27.732Z,430
2023-08-13T04:46:41.971Z,425
2023-08-13T04:47:56.211Z,440
2023-08-13T04:49:10.450Z,548
2023-08-13T04:50:24.689Z,647
2023-08-13T04:51:38.928Z,609
2023-08-13T04:52:52.183Z,482
2023-08-13T04:54:06.423Z,406
2023-08-13T04:55:20.662Z,386
2023-08-13T04:56:34.901Z,402
2023-08-13T04:57:49.141Z,438
2023-08-13T04:59:03.380Z,491
2023-08-13T05:00:17.619Z,591
2023-08-13T05:01:31.858Z,727
2023-08-13T05:02:46.098Z,867
2023-08-13T05:04:00.337Z,889
2023-08-13T05:05:14.576Z,1014
2023-08-13T05:06:28.815Z,1179
2023-08-13T05:07:43.055Z,1649
2023-08-13T05:08:56.310Z,1733
2023-08-13T05:10:10.549Z,1356
2023-08-13T05:11:24.788Z,1503
2023-08-13T05:12:39.027Z,1865
2023-08-13T05:13:53.267Z,7963
2023-08-13T05:15:07.506Z,10364
2023-08-13T05:16:21.745Z,4946
2023-08-13T05:17:35.984Z,1762
2023-08-13T05:18:50.224Z,1463
2023-08-13T05:20:04.463Z,1394
2023-08-13T05:21:18.702Z,1382
2023-08-13T05:22:32.941Z,1306
2023-08-13T05:23:47.181Z,1200
2023-08-13T05:25:00.436Z,1467
2023-08-13T05:26:14.676Z,1719
2023-08-13T05:27:28.915Z,1861
2023-08-13T05:28:43.154Z,1486
2023-08-13T05:29:57.394Z,1111
2023-08-13T05:31:11.633Z,941
2023-08-13T05:32:25.872Z,831
2023-08-13T05:33:40.111Z,746
2023-08-13T05:34:54.350Z,712
2023-08-13T05:36:08.589Z,685
2023-08-13T05:37:22.829Z,688
2023-08-13T05:38:37.068Z,731
2023-08-13T05:39:51.308Z,850
2023-08-13T05:41:04.563Z,942
2023-08-13T05:42:18.802Z,1080
2023-08-13T05:43:33.041Z,1266
2023-08-13T05:44:47.280Z,1311
2023-08-13T05:46:01.519Z,1288
2023-08-13T05:47:15.759Z,1312
2023-08-13T05:48:29.998Z,739
2023-08-13T05:49:44.237Z,1823
2023-08-13T05:50:58.476Z,2313
2023-08-13T05:52:12.715Z,3054
2023-08-13T05:53:26.955Z,2606
2023-08-13T05:54:41.194Z,2322
2023-08-13T05:55:55.433Z,2037
2023-08-13T05:57:08.688Z,1821
2023-08-13T05:58:22.927Z,1627
2023-08-13T05:59:37.166Z,1721
2023-08-13T06:00:51.406Z,1811
2023-08-13T06:02:05.645Z,1981
2023-08-13T06:03:19.884Z,1985
2023-08-13T06:04:34.124Z,1822
2023-08-13T06:05:48.363Z,1673
2023-08-13T06:07:02.602Z,1678
2023-08-13T06:08:16.841Z,1970
2023-08-13T06:09:31.081Z,2182
2023-08-13T06:10:45.320Z,2232
2023-08-13T06:11:59.560Z,1172
2023-08-13T06:13:12.815Z,3729
2023-08-13T06:14:27.054Z,3124
2023-08-13T06:15:41.294Z,3054
2023-08-13T06:16:55.533Z,2455
2023-08-13T06:18:09.772Z,3450
2023-08-13T06:19:24.012Z,2750
2023-08-13T06:20:38.251Z,2290
2023-08-13T06:21:52.491Z,2095
2023-08-13T06:23:06.730Z,2111
2023-08-13T06:24:20.969Z,2333
2023-08-13T06:25:35.208Z,2948
2023-08-13T06:26:49.448Z,2793
2023-08-13T06:28:03.687Z,2291
2023-08-13T06:29:16.942Z,2088
2023-08-13T06:30:31.182Z,2115
2023-08-13T06:31:45.421Z,2243
2023-08-13T06:32:59.660Z,2460
2023-08-13T06:34:13.900Z,2538
2023-08-13T06:35:28.139Z,2647
2023-08-13T06:36:42.378Z,2115
2023-08-13T06:37:56.617Z,3260
2023-08-13T06:39:10.857Z,3183
2023-08-13T06:40:25.096Z,3518
2023-08-13T06:41:39.335Z,3516
2023-08-13T06:42:53.575Z,3459
2023-08-13T06:44:07.814Z,3568
2023-08-13T06:45:21.070Z,3373
2023-08-13T06:46:35.309Z,3506
2023-08-13T06:47:49.548Z,3566
2023-08-13T06:49:03.788Z,3237
2023-08-13T06:50:18.027Z,3945
2023-08-13T06:51:32.266Z,3783
2023-08-13T06:52:46.505Z,2939
2023-08-13T06:54:00.745Z,4411
2023-08-13T06:55:14.984Z,4034
2023-08-13T06:56:29.224Z,4016
2023-08-13T06:57:43.463Z,4021
2023-08-13T06:58:57.702Z,3996
2023-08-13T07:00:11.941Z,3883
2023-08-13T07:01:25.197Z,4131
2023-08-13T07:02:39.436Z,4129
2023-08-13T07:03:53.675Z,4073
2023-08-13T07:05:07.915Z,3836
2023-08-13T07:06:22.154Z,3957
2023-08-13T07:07:36.393Z,3913
2023-08-13T07:08:50.632Z,4258
2023-08-13T07:10:04.872Z,4200
2023-08-13T07:11:19.112Z,4143
2023-08-13T07:12:33.351Z,4078
2023-08-13T07:13:47.591Z,4039
2023-08-13T07:15:01.831Z,4143
2023-08-13T07:16:16.070Z,4038
2023-08-13T07:17:29.325Z,4342
2023-08-13T07:18:43.564Z,4405
2023-08-13T07:19:57.804Z,4627
2023-08-13T07:21:12.043Z,3183
2023-08-13T07:22:26.271Z,4824
2023-08-13T07:23:40.521Z,3782
2023-08-13T07:24:53.782Z,4295
2023-08-13T07:26:08.021Z,4379
2023-08-13T07:27:22.261Z,3573
2023-08-13T07:28:36.500Z,3139
2023-08-13T07:29:50.739Z,3923
2023-08-13T07:31:04.978Z,3568
2023-08-13T07:32:19.217Z,3304
2023-08-13T07:33:33.457Z,3386
2023-08-13T07:34:47.696Z,4968
2023-08-13T07:36:01.936Z,3358
2023-08-13T07:37:16.176Z,3774
2023-08-13T07:38:30.416Z,4147
2023-08-13T07:39:44.655Z,5254
2023-08-13T07:40:57.911Z,4582
2023-08-13T07:42:12.150Z,4669
2023-08-13T07:43:26.390Z,4041
2023-08-13T07:44:40.629Z,5391
2023-08-13T07:45:54.869Z,3552
2023-08-13T07:47:09.108Z,4660
2023-08-13T07:48:23.348Z,4302
2023-08-13T07:49:37.587Z,4214
2023-08-13T07:50:51.826Z,4142
2023-08-13T07:52:06.064Z,4046
2023-08-13T07:53:20.303Z,3988
2023-08-13T07:54:34.542Z,4287
2023-08-13T07:55:48.781Z,4574
2023-08-13T07:57:02.036Z,2719
2023-08-13T07:58:16.274Z,3596
2023-08-13T07:59:30.514Z,4715
2023-08-13T08:00:44.753Z,4054
2023-08-13T08:01:58.991Z,4426
2023-08-13T08:03:13.230Z,4406
2023-08-13T08:04:27.469Z,4413
2023-08-13T08:05:41.708Z,3070
2023-08-13T08:06:55.948Z,4144
2023-08-13T08:08:10.186Z,4866
2023-08-13T08:09:24.425Z,3526
2023-08-13T08:10:38.664Z,4208
2023-08-13T08:11:52.903Z,5285
2023-08-13T08:13:06.158Z,3339
2023-08-13T08:14:20.397Z,4703
2023-08-13T08:15:34.636Z,3250
2023-08-13T08:16:48.875Z,3417
2023-08-13T08:18:03.114Z,4208
2023-08-13T08:19:17.353Z,4429
2023-08-13T08:20:31.592Z,4426
2023-08-13T08:21:45.831Z,4308
2023-08-13T08:23:00.071Z,5050
2023-08-13T08:24:14.310Z,3433
2023-08-13T08:25:28.549Z,2453
2023-08-13T08:26:42.788Z,3740
2023-08-13T08:27:57.027Z,3824
2023-08-13T08:29:10.283Z,3016
2023-08-13T08:30:24.522Z,3862
2023-08-13T08:31:38.761Z,4445
2023-08-13T08:32:53.001Z,4266
2023-08-13T08:34:07.240Z,4332
2023-08-13T08:35:21.479Z,3951
2023-08-13T08:36:35.719Z,3732
2023-08-13T08:37:49.958Z,4217
2023-08-13T08:39:04.197Z,3846
2023-08-13T08:40:18.436Z,3785
2023-08-13T08:41:32.676Z,2263
2023-08-13T08:42:46.915Z,4137
2023-08-13T08:44:01.154Z,2743
2023-08-13T08:45:14.410Z,3371
2023-08-13T08:46:28.649Z,4783
2023-08-13T08:47:42.888Z,2983
2023-08-13T08:48:57.129Z,3181
2023-08-13T08:50:11.368Z,3431
2023-08-13T08:51:25.607Z,5462
2023-08-13T08:52:39.847Z,3005
2023-08-13T08:53:54.087Z,4018
2023-08-13T08:55:08.326Z,3387
2023-08-13T08:56:22.565Z,3487
2023-08-13T08:57:36.805Z,3578
2023-08-13T08:58:51.044Z,4300
2023-08-13T09:00:05.283Z,3824
2023-08-13T09:01:18.539Z,3927
2023-08-13T09:02:32.778Z,3738
2023-08-13T09:03:47.019Z,3897
2023-08-13T09:05:01.258Z,4134
2023-08-13T09:06:15.497Z,4492
2023-08-13T09:07:29.737Z,4657
2023-08-13T09:08:43.976Z,3921
2023-08-13T09:09:58.216Z,4157
2023-08-13T09:11:12.455Z,5255
2023-08-13T09:12:26.694Z,4848
2023-08-13T09:13:40.934Z,3781
2023-08-13T09:14:55.173Z,3723
2023-08-13T09:16:09.413Z,4211
2023-08-13T09:17:22.668Z,3235
2023-08-13T09:18:36.907Z,3501
2023-08-13T09:19:51.147Z,4166
2023-08-13T09:21:05.386Z,3882
2023-08-13T09:22:19.625Z,3768
2023-08-13T09:23:33.865Z,4271
2023-08-13T09:24:48.104Z,3255
2023-08-13T09:26:02.344Z,2680
2023-08-13T09:27:16.583Z,4658
2023-08-13T09:28:30.822Z,3274
2023-08-13T09:29:45.062Z,4114
2023-08-13T09:30:59.301Z,4416
2023-08-13T09:32:13.541Z,4333
2023-08-13T09:33:26.796Z,4214
2023-08-13T09:34:41.035Z,4164
2023-08-13T09:35:55.275Z,4121
2023-08-13T09:37:09.514Z,3631
2023-08-13T09:38:23.754Z,2450
2023-08-13T09:39:37.993Z,3179
2023-08-13T09:40:52.233Z,3549
2023-08-13T09:42:06.472Z,4556
2023-08-13T09:43:20.711Z,3881
2023-08-13T09:44:34.936Z,4023
2023-08-13T09:45:49.190Z,4149
2023-08-13T09:47:03.431Z,4045
2023-08-13T09:48:17.670Z,4156
2023-08-13T09:49:30.926Z,4146
2023-08-13T09:50:45.165Z,4254
2023-08-13T09:51:59.404Z,4060
2023-08-13T09:53:13.644Z,4225
2023-08-13T09:54:27.883Z,4174
2023-08-13T09:55:42.123Z,4356
2023-08-13T09:56:56.363Z,4301
2023-08-13T09:58:10.602Z,4418
2023-08-13T09:59:24.841Z,4330
2023-08-13T10:00:39.081Z,4397
2023-08-13T10:01:53.321Z,4276
2023-08-13T10:03:07.560Z,4453
2023-08-13T10:04:21.800Z,4546
2023-08-13T10:05:35.055Z,4371
2023-08-13T10:06:49.294Z,4373
2023-08-13T10:08:03.534Z,4452
2023-08-13T10:09:17.773Z,4535
2023-08-13T10:10:32.013Z,4334
2023-08-13T10:11:46.252Z,4361
2023-08-13T10:13:00.491Z,4379
2023-08-13T10:14:14.731Z,4489
2023-08-13T10:15:28.970Z,4249
2023-08-13T10:16:43.210Z,4410
2023-08-13T10:17:57.450Z,4866
2023-08-13T10:19:11.689Z,4639
2023-08-13T10:20:25.929Z,4676
2023-08-13T10:21:39.184Z,4728
2023-08-13T10:22:53.424Z,4581
2023-08-13T10:24:07.664Z,4530
2023-08-13T10:25:21.903Z,4474
2023-08-13T10:26:36.143Z,4653
2023-08-13T10:27:50.382Z,4444
2023-08-13T10:29:04.622Z,4788
2023-08-13T10:30:18.861Z,4995
2023-08-13T10:31:33.101Z,4639
2023-08-13T10:32:47.340Z,4111
2023-08-13T10:34:01.580Z,4371
2023-08-13T10:35:15.819Z,4425
2023-08-13T10:36:30.059Z,4764
2023-08-13T10:37:43.315Z,4679
2023-08-13T10:38:57.554Z,4428
2023-08-13T10:40:11.794Z,4354
2023-08-13T10:41:26.034Z,4865
2023-08-13T10:42:40.273Z,4233
2023-08-13T10:43:54.514Z,4499
2023-08-13T10:45:08.753Z,4148
2023-08-13T10:46:22.993Z,4400
2023-08-13T10:47:37.232Z,4276
2023-08-13T10:48:51.472Z,4657
2023-08-13T10:50:05.712Z,4932
2023-08-13T10:51:19.951Z,4568
2023-08-13T10:52:34.191Z,4838
2023-08-13T10:53:47.446Z,5388
2023-08-13T10:55:01.686Z,4875
2023-08-13T10:56:15.925Z,5078
2023-08-13T10:57:30.165Z,4466
2023-08-13T10:58:44.404Z,4856
2023-08-13T10:59:58.644Z,7579
2023-08-13T11:01:12.884Z,5051
2023-08-13T11:02:27.123Z,5108
2023-08-13T11:03:41.363Z,4383
2023-08-13T11:04:55.602Z,3595
2023-08-13T11:06:09.842Z,4543
2023-08-13T11:07:24.081Z,5872
2023-08-13T11:08:38.321Z,4208
2023-08-13T11:09:51.577Z,4306
2023-08-13T11:11:05.816Z,4430
2023-08-13T11:12:20.056Z,3052
2023-08-13T11:13:34.295Z,4782
2023-08-13T11:14:48.535Z,4739
2023-08-13T11:16:02.774Z,4467
2023-08-13T11:17:17.014Z,4180
2023-08-13T11:18:31.253Z,4110
2023-08-13T11:19:45.493Z,4354
2023-08-13T11:20:59.732Z,3952
2023-08-13T11:22:13.972Z,3782
2023-08-13T11:23:28.212Z,4042
2023-08-13T11:24:42.451Z,3757
2023-08-13T11:25:55.707Z,4829
2023-08-13T11:27:09.946Z,4364
2023-08-13T11:28:24.186Z,3593
2023-08-13T11:29:38.425Z,4001
2023-08-13T11:30:52.665Z,3436
2023-08-13T11:32:06.904Z,4582
2023-08-13T11:33:20.165Z,4550
2023-08-13T11:34:34.405Z,4086
2023-08-13T11:35:48.645Z,4420
2023-08-13T11:37:02.884Z,3997
2023-08-13T11:38:17.123Z,4306
2023-08-13T11:39:31.363Z,4580
2023-08-13T11:40:45.602Z,4653
2023-08-13T11:41:59.842Z,4512
2023-08-13T11:43:14.081Z,4831
2023-08-13T11:44:28.321Z,4324
2023-08-13T11:45:42.560Z,4473
2023-08-13T11:46:56.800Z,3920
2023-08-13T11:48:11.039Z,4006
2023-08-13T11:49:24.295Z,3905
2023-08-13T11:50:38.534Z,3852
2023-08-13T11:51:52.774Z,3790
2023-08-13T11:53:07.013Z,3705
2023-08-13T11:54:21.252Z,3826
2023-08-13T11:55:35.492Z,3529
2023-08-13T11:56:49.732Z,3845
2023-08-13T11:58:03.971Z,3937
2023-08-13T11:59:18.210Z,6913
2023-08-13T12:00:32.450Z,3753
2023-08-13T12:01:46.689Z,1520
2023-08-13T12:03:00.929Z,3621
2023-08-13T12:04:15.168Z,3231
2023-08-13T12:05:28.424Z,2983
2023-08-13T12:06:42.664Z,4016
2023-08-13T12:07:56.903Z,3309
2023-08-13T12:09:11.143Z,5890
2023-08-13T12:10:25.382Z,3780
2023-08-13T12:11:39.622Z,1607
2023-08-13T12:12:53.861Z,4040
2023-08-13T12:14:08.101Z,2749
2023-08-13T12:15:22.340Z,4360
2023-08-13T12:16:36.580Z,5143
2023-08-13T12:17:50.819Z,1892
2023-08-13T12:19:05.059Z,4918
2023-08-13T12:20:19.298Z,1803
2023-08-13T12:21:32.554Z,3436
2023-08-13T12:22:46.793Z,3416
2023-08-13T12:24:01.033Z,3689
2023-08-13T12:25:15.272Z,3703
2023-08-13T12:26:29.512Z,3764
2023-08-13T12:27:43.751Z,4162
2023-08-13T12:28:57.991Z,4113
2023-08-13T12:30:12.230Z,4178
2023-08-13T12:31:26.469Z,3753
2023-08-13T12:32:40.709Z,4247
2023-08-13T12:33:54.948Z,4412
2023-08-13T12:35:09.187Z,3984
2023-08-13T12:36:23.427Z,3298
2023-08-13T12:37:36.682Z,2572
2023-08-13T12:38:50.922Z,3592
2023-08-13T12:40:05.162Z,4867
2023-08-13T12:41:19.402Z,4153
2023-08-13T12:42:33.641Z,3827
2023-08-13T12:43:47.880Z,4417
2023-08-13T12:45:02.120Z,3690
2023-08-13T12:46:16.359Z,3762
2023-08-13T12:47:30.598Z,3006
2023-08-13T12:48:44.838Z,2955
2023-08-13T12:49:59.077Z,3685
2023-08-13T12:51:13.317Z,4144
2023-08-13T12:52:27.556Z,4938
2023-08-13T12:53:40.812Z,4522
2023-08-13T12:54:55.051Z,4043
2023-08-13T12:56:09.290Z,3010
2023-08-13T12:57:23.530Z,3607
2023-08-13T12:58:37.769Z,3960
2023-08-13T12:59:52.009Z,3936
2023-08-13T13:01:06.248Z,5066
2023-08-13T13:02:20.487Z,3927
2023-08-13T13:03:34.726Z,3196
2023-08-13T13:04:48.966Z,3981
2023-08-13T13:06:03.205Z,3822
2023-08-13T13:07:17.445Z,3600
2023-08-13T13:08:31.685Z,3497
2023-08-13T13:09:44.940Z,3602
2023-08-13T13:10:59.194Z,3600
2023-08-13T13:12:13.419Z,3759
2023-08-13T13:13:27.658Z,3882
2023-08-13T13:14:41.898Z,3225
2023-08-13T13:15:56.137Z,3673
2023-08-13T13:17:10.376Z,4270
2023-08-13T13:18:24.616Z,3496
2023-08-13T13:19:38.855Z,3887
2023-08-13T13:20:53.095Z,4028
2023-08-13T13:22:07.334Z,4052
2023-08-13T13:23:21.573Z,3841
2023-08-13T13:24:35.812Z,4017
2023-08-13T13:25:49.068Z,4050
2023-08-13T13:27:03.308Z,3992
2023-08-13T13:28:17.548Z,4033
2023-08-13T13:29:31.787Z,4043
2023-08-13T13:30:46.026Z,4074
2023-08-13T13:32:00.266Z,4006
2023-08-13T13:33:14.505Z,4023
2023-08-13T13:34:28.745Z,3865
2023-08-13T13:35:42.984Z,4183
2023-08-13T13:36:57.223Z,4056
2023-08-13T13:38:11.463Z,4033
2023-08-13T13:39:25.702Z,3818
2023-08-13T13:40:39.942Z,3888
2023-08-13T13:41:53.197Z,3979
2023-08-13T13:43:07.437Z,3943
2023-08-13T13:44:21.677Z,4058
2023-08-13T13:45:35.916Z,4040
2023-08-13T13:46:50.155Z,4145
2023-08-13T13:48:04.395Z,4086
2023-08-13T13:49:18.634Z,4046
2023-08-13T13:50:32.873Z,3970
2023-08-13T13:51:47.113Z,4103
2023-08-13T13:53:01.352Z,4004
2023-08-13T13:54:15.592Z,4067
2023-08-13T13:55:29.831Z,3974
2023-08-13T13:56:44.071Z,3938
2023-08-13T13:57:57.327Z,3831
2023-08-13T13:59:11.566Z,3877
2023-08-13T14:00:25.806Z,3861
2023-08-13T14:01:40.045Z,3782
2023-08-13T14:02:54.285Z,3783
2023-08-13T14:04:08.525Z,3750
2023-08-13T14:05:22.764Z,3713
2023-08-13T14:06:37.004Z,3629
2023-08-13T14:07:51.243Z,3693
2023-08-13T14:09:05.482Z,3757
2023-08-13T14:10:19.722Z,3482
2023-08-13T14:11:33.961Z,3598
2023-08-13T14:12:48.201Z,3603
2023-08-13T14:14:01.456Z,3599
2023-08-13T14:15:15.696Z,3678
2023-08-13T14:16:29.935Z,3451
2023-08-13T14:17:44.175Z,3500
2023-08-13T14:18:58.414Z,3422
2023-08-13T14:20:12.654Z,3296
2023-08-13T14:21:26.893Z,3472
2023-08-13T14:22:41.132Z,3524
2023-08-13T14:23:55.372Z,3532
2023-08-13T14:25:09.612Z,3603
2023-08-13T14:26:23.851Z,3590
2023-08-13T14:27:38.091Z,3495
2023-08-13T14:28:52.330Z,3506
2023-08-13T14:30:05.586Z,3512
2023-08-13T14:31:19.825Z,3520
2023-08-13T14:32:34.064Z,3463
2023-08-13T14:33:48.304Z,3542
2023-08-13T14:35:02.543Z,3557
2023-08-13T14:36:16.783Z,3562
2023-08-13T14:37:31.022Z,3440
2023-08-13T14:38:45.262Z,3517
2023-08-13T14:39:59.502Z,3385
2023-08-13T14:41:13.741Z,3387
2023-08-13T14:42:27.980Z,3612
2023-08-13T14:43:42.220Z,3306
2023-08-13T14:44:56.459Z,3478
2023-08-13T14:46:09.715Z,3322
2023-08-13T14:47:23.954Z,3186
2023-08-13T14:48:38.194Z,3275
2023-08-13T14:49:52.433Z,3170
2023-08-13T14:51:06.673Z,3133
2023-08-13T14:52:20.920Z,3163
2023-08-13T14:53:35.152Z,3097
2023-08-13T14:54:49.391Z,3229
2023-08-13T14:56:03.630Z,2911
2023-08-13T14:57:17.870Z,3120
2023-08-13T14:58:32.109Z,3076
2023-08-13T14:59:46.349Z,3482
2023-08-13T15:01:00.588Z,2903
2023-08-13T15:02:13.844Z,3096
2023-08-13T15:03:28.083Z,3148
2023-08-13T15:04:42.322Z,3196
2023-08-13T15:05:56.562Z,3187
2023-08-13T15:07:10.801Z,3094
2023-08-13T15:08:25.041Z,3205
2023-08-13T15:09:39.280Z,3113
2023-08-13T15:10:53.520Z,3145
2023-08-13T15:12:07.759Z,3041
2023-08-13T15:13:21.998Z,3045
2023-08-13T15:14:36.238Z,3018
2023-08-13T15:15:50.477Z,2912
2023-08-13T15:17:04.716Z,2951
2023-08-13T15:18:17.972Z,2835
2023-08-13T15:19:32.211Z,2947
2023-08-13T15:20:46.451Z,2900
2023-08-13T15:22:00.690Z,2811
2023-08-13T15:23:14.929Z,2779
2023-08-13T15:24:29.169Z,2765
2023-08-13T15:25:43.409Z,2747
2023-08-13T15:26:57.648Z,2761
2023-08-13T15:28:11.887Z,2688
2023-08-13T15:29:26.127Z,2636
2023-08-13T15:30:40.366Z,2652
2023-08-13T15:31:54.606Z,2604
2023-08-13T15:33:08.845Z,2549
2023-08-13T15:34:22.100Z,2498
2023-08-13T15:35:36.339Z,2553
2023-08-13T15:36:50.579Z,2513
2023-08-13T15:38:04.818Z,2452
2023-08-13T15:39:19.058Z,2453
2023-08-13T15:40:33.297Z,2460
2023-08-13T15:41:46.558Z,2422
2023-08-13T15:43:00.797Z,2403
2023-08-13T15:44:15.037Z,2436
2023-08-13T15:45:29.276Z,2367
2023-08-13T15:46:43.515Z,2373
2023-08-13T15:47:57.755Z,2371
2023-08-13T15:49:11.994Z,2276
2023-08-13T15:50:26.233Z,2258
2023-08-13T15:51:40.473Z,2202
2023-08-13T15:52:54.712Z,2162
2023-08-13T15:54:08.952Z,2130
2023-08-13T15:55:23.191Z,2076
2023-08-13T15:56:37.438Z,2128
2023-08-13T15:57:50.686Z,2077
2023-08-13T15:59:04.926Z,2032
2023-08-13T16:00:19.165Z,2014
2023-08-13T16:01:33.405Z,1971
2023-08-13T16:02:47.644Z,1958
2023-08-13T16:04:01.884Z,1922
2023-08-13T16:05:16.123Z,1884
2023-08-13T16:06:30.362Z,1864
2023-08-13T16:07:44.602Z,1855
2023-08-13T16:08:58.841Z,1851
2023-08-13T16:10:13.081Z,1845
2023-08-13T16:11:27.320Z,1819
2023-08-13T16:12:41.560Z,1802
2023-08-13T16:13:54.816Z,1759
2023-08-13T16:15:09.055Z,1676
2023-08-13T16:16:23.295Z,1618
2023-08-13T16:17:37.534Z,1510
2023-08-13T16:18:51.774Z,1488
2023-08-13T16:20:06.013Z,1342
2023-08-13T16:21:20.252Z,1203
2023-08-13T16:22:34.492Z,1186
2023-08-13T16:23:48.732Z,1183
2023-08-13T16:25:02.972Z,1158
2023-08-13T16:26:17.211Z,1165
2023-08-13T16:27:31.451Z,1174
2023-08-13T16:28:45.690Z,1057
2023-08-13T16:29:58.946Z,999
2023-08-13T16:31:13.185Z,991
2023-08-13T16:32:27.425Z,966
2023-08-13T16:33:41.664Z,984
2023-08-13T16:34:55.904Z,1006
2023-08-13T16:36:10.144Z,991
2023-08-13T16:37:24.383Z,1042
2023-08-13T16:38:38.622Z,973
2023-08-13T16:39:52.862Z,988
2023-08-13T16:41:07.101Z,1135
2023-08-13T16:42:21.341Z,1250
2023-08-13T16:43:35.580Z,1164
2023-08-13T16:44:49.820Z,1114
2023-08-13T16:46:03.076Z,1168
2023-08-13T16:47:17.315Z,1160
2023-08-13T16:48:31.556Z,1308
2023-08-13T16:49:45.795Z,1242
2023-08-13T16:51:00.035Z,1063
2023-08-13T16:52:14.274Z,1023
2023-08-13T16:53:28.513Z,996